sensor_id;sensor_type;location;lat;lon;timestamp;P1;durP1;ratioP1;P2;durP2;ratioP2
77234;SDS011;66253;50.526;14.974;2023-04-06T00:02:15;10.30;;;5.20;;
77234;SDS011;66253;50.526;14.974;2023-04-06T00:04:41;12.50;;;5.60;;
77234;SDS011;66253;50.526;14.974;2023-04-06T00:07:07;9.70;;;4.90;;
77234;SDS011;66253;50.526;14.974;2023-04-06T00:09:32;14.20;;;7.40;;
77234;SDS011;66253;50.526;14.974;2023-04-06T00:11:58;15.80;;;8.20;;
77234;SDS011;66253;50.526;14.974;2023-04-06T00:14:23;15.40;;;8.20;;
77234;SDS011;66253;50.526;14.974;2023-04-06T00:16:49;12.50;;;6.40;;
77234;SDS011;66253;50.526;14.974;2023-04-06T00:19:15;11.50;;;5.40;;
77234;SDS011;66253;50.526;14.974;2023-04-06T00:21:41;12.00;;;5.80;;
77234;SDS011;66253;50.526;14.974;2023-04-06T00:24:06;13.50;;;7.30;;
77234;SDS011;66253;50.526;14.974;2023-04-06T00:26:32;11.90;;;6.40;;
77234;SDS011;66253;50.526;14.974;2023-04-06T00:28:58;12.50;;;5.70;;
77234;SDS011;66253;50.526;14.974;2023-04-06T00:31:24;12.40;;;5.90;;
77234;SDS011;66253;50.526;14.974;2023-04-06T00:33:50;10.70;;;6.20;;
77234;SDS011;66253;50.526;14.974;2023-04-06T00:36:15;10.10;;;4.80;;
77234;SDS011;66253;50.526;14.974;2023-04-06T00:38:41;11.00;;;6.70;;
77234;SDS011;66253;50.526;14.974;2023-04-06T00:41:07;9.60;;;4.40;;
77234;SDS011;66253;50.526;14.974;2023-04-06T00:43:33;12.70;;;5.50;;
77234;SDS011;66253;50.526;14.974;2023-04-06T00:45:59;11.70;;;5.00;;
77234;SDS011;66253;50.526;14.974;2023-04-06T00:48:25;17.70;;;9.30;;
77234;SDS011;66253;50.526;14.974;2023-04-06T00:50:51;11.00;;;4.90;;
77234;SDS011;66253;50.526;14.974;2023-04-06T00:53:16;10.50;;;5.30;;
77234;SDS011;66253;50.526;14.974;2023-04-06T00:55:42;9.60;;;4.50;;
77234;SDS011;66253;50.526;14.974;2023-04-06T00:58:08;9.00;;;4.20;;
77234;SDS011;66253;50.526;14.974;2023-04-06T01:00:34;9.50;;;4.50;;
77234;SDS011;66253;50.526;14.974;2023-04-06T01:02:59;11.10;;;4.70;;
77234;SDS011;66253;50.526;14.974;2023-04-06T01:05:26;9.50;;;4.20;;
77234;SDS011;66253;50.526;14.974;2023-04-06T01:07:51;18.80;;;7.80;;
77234;SDS011;66253;50.526;14.974;2023-04-06T01:10:24;23.80;;;9.40;;
77234;SDS011;66253;50.526;14.974;2023-04-06T01:12:50;13.70;;;5.90;;
77234;SDS011;66253;50.526;14.974;2023-04-06T01:15:16;11.80;;;5.20;;
77234;SDS011;66253;50.526;14.974;2023-04-06T01:17:42;9.20;;;4.30;;
77234;SDS011;66253;50.526;14.974;2023-04-06T01:20:07;9.10;;;4.00;;
77234;SDS011;66253;50.526;14.974;2023-04-06T01:22:33;9.30;;;4.20;;
77234;SDS011;66253;50.526;14.974;2023-04-06T01:24:59;7.90;;;3.70;;
77234;SDS011;66253;50.526;14.974;2023-04-06T01:27:25;9.30;;;4.00;;
77234;SDS011;66253;50.526;14.974;2023-04-06T01:29:51;6.80;;;3.20;;
77234;SDS011;66253;50.526;14.974;2023-04-06T01:32:17;9.60;;;3.50;;
77234;SDS011;66253;50.526;14.974;2023-04-06T01:34:43;7.10;;;3.10;;
77234;SDS011;66253;50.526;14.974;2023-04-06T01:37:08;8.30;;;3.20;;
77234;SDS011;66253;50.526;14.974;2023-04-06T01:39:34;7.90;;;3.30;;
77234;SDS011;66253;50.526;14.974;2023-04-06T01:42:00;6.90;;;2.60;;
77234;SDS011;66253;50.526;14.974;2023-04-06T01:44:25;7.60;;;3.50;;
77234;SDS011;66253;50.526;14.974;2023-04-06T01:46:51;6.80;;;3.00;;
77234;SDS011;66253;50.526;14.974;2023-04-06T01:49:17;6.90;;;3.40;;
77234;SDS011;66253;50.526;14.974;2023-04-06T01:51:42;6.80;;;3.30;;
77234;SDS011;66253;50.526;14.974;2023-04-06T01:54:08;7.70;;;3.40;;
77234;SDS011;66253;50.526;14.974;2023-04-06T01:56:34;7.00;;;3.20;;
77234;SDS011;66253;50.526;14.974;2023-04-06T01:59:00;6.90;;;3.10;;
77234;SDS011;66253;50.526;14.974;2023-04-06T02:01:26;7.40;;;3.40;;
77234;SDS011;66253;50.526;14.974;2023-04-06T02:03:51;6.50;;;2.70;;
77234;SDS011;66253;50.526;14.974;2023-04-06T02:06:17;7.00;;;3.30;;
77234;SDS011;66253;50.526;14.974;2023-04-06T02:08:43;7.00;;;3.20;;
77234;SDS011;66253;50.526;14.974;2023-04-06T02:11:08;7.00;;;2.90;;
77234;SDS011;66253;50.526;14.974;2023-04-06T02:13:34;8.90;;;3.30;;
77234;SDS011;66253;50.526;14.974;2023-04-06T02:16:00;7.90;;;3.20;;
77234;SDS011;66253;50.526;14.974;2023-04-06T02:18:28;6.80;;;3.50;;
77234;SDS011;66253;50.526;14.974;2023-04-06T02:20:55;9.00;;;3.20;;
77234;SDS011;66253;50.526;14.974;2023-04-06T02:23:21;8.70;;;3.60;;
77234;SDS011;66253;50.526;14.974;2023-04-06T02:25:47;7.20;;;2.80;;
77234;SDS011;66253;50.526;14.974;2023-04-06T02:28:13;6.00;;;2.60;;
77234;SDS011;66253;50.526;14.974;2023-04-06T02:30:39;8.30;;;3.30;;
77234;SDS011;66253;50.526;14.974;2023-04-06T02:33:05;6.90;;;3.40;;
77234;SDS011;66253;50.526;14.974;2023-04-06T02:35:30;7.30;;;3.20;;
77234;SDS011;66253;50.526;14.974;2023-04-06T02:37:57;5.60;;;2.70;;
77234;SDS011;66253;50.526;14.974;2023-04-06T02:40:23;8.40;;;3.20;;
77234;SDS011;66253;50.526;14.974;2023-04-06T02:42:49;5.80;;;2.50;;
77234;SDS011;66253;50.526;14.974;2023-04-06T02:45:14;8.60;;;3.40;;
77234;SDS011;66253;50.526;14.974;2023-04-06T02:47:41;6.80;;;3.30;;
77234;SDS011;66253;50.526;14.974;2023-04-06T02:50:07;7.30;;;3.00;;
77234;SDS011;66253;50.526;14.974;2023-04-06T02:52:33;7.70;;;3.90;;
77234;SDS011;66253;50.526;14.974;2023-04-06T02:54:59;10.60;;;4.70;;
77234;SDS011;66253;50.526;14.974;2023-04-06T02:57:25;10.30;;;4.60;;
77234;SDS011;66253;50.526;14.974;2023-04-06T02:59:50;9.20;;;4.20;;
77234;SDS011;66253;50.526;14.974;2023-04-06T03:02:16;11.20;;;4.70;;
77234;SDS011;66253;50.526;14.974;2023-04-06T03:04:42;9.80;;;4.70;;
77234;SDS011;66253;50.526;14.974;2023-04-06T03:07:08;10.10;;;4.80;;
77234;SDS011;66253;50.526;14.974;2023-04-06T03:09:34;11.30;;;5.30;;
77234;SDS011;66253;50.526;14.974;2023-04-06T03:12:02;14.30;;;6.20;;
77234;SDS011;66253;50.526;14.974;2023-04-06T03:14:28;9.40;;;4.70;;
77234;SDS011;66253;50.526;14.974;2023-04-06T03:16:53;8.50;;;4.10;;
77234;SDS011;66253;50.526;14.974;2023-04-06T03:19:19;10.60;;;4.00;;
77234;SDS011;66253;50.526;14.974;2023-04-06T03:21:45;9.10;;;3.40;;
77234;SDS011;66253;50.526;14.974;2023-04-06T03:24:11;8.10;;;3.20;;
77234;SDS011;66253;50.526;14.974;2023-04-06T03:26:38;8.20;;;3.40;;
77234;SDS011;66253;50.526;14.974;2023-04-06T03:29:05;9.40;;;4.50;;
77234;SDS011;66253;50.526;14.974;2023-04-06T03:31:30;9.40;;;4.00;;
77234;SDS011;66253;50.526;14.974;2023-04-06T03:33:56;10.70;;;3.90;;
77234;SDS011;66253;50.526;14.974;2023-04-06T03:36:22;9.30;;;3.80;;
77234;SDS011;66253;50.526;14.974;2023-04-06T03:38:48;8.60;;;2.60;;
77234;SDS011;66253;50.526;14.974;2023-04-06T03:41:13;8.80;;;4.00;;
77234;SDS011;66253;50.526;14.974;2023-04-06T03:43:39;10.10;;;3.90;;
77234;SDS011;66253;50.526;14.974;2023-04-06T03:46:05;9.70;;;4.20;;
77234;SDS011;66253;50.526;14.974;2023-04-06T03:48:30;11.30;;;3.70;;
77234;SDS011;66253;50.526;14.974;2023-04-06T03:50:56;8.80;;;3.70;;
77234;SDS011;66253;50.526;14.974;2023-04-06T03:53:22;8.80;;;3.70;;
77234;SDS011;66253;50.526;14.974;2023-04-06T03:55:48;8.00;;;3.30;;
77234;SDS011;66253;50.526;14.974;2023-04-06T03:58:13;8.00;;;3.00;;
77234;SDS011;66253;50.526;14.974;2023-04-06T04:00:39;7.90;;;3.60;;
77234;SDS011;66253;50.526;14.974;2023-04-06T04:03:05;8.80;;;3.30;;
77234;SDS011;66253;50.526;14.974;2023-04-06T04:05:31;7.50;;;3.10;;
77234;SDS011;66253;50.526;14.974;2023-04-06T04:07:56;9.50;;;3.70;;
77234;SDS011;66253;50.526;14.974;2023-04-06T04:10:22;9.70;;;3.00;;
77234;SDS011;66253;50.526;14.974;2023-04-06T04:12:47;7.60;;;3.50;;
77234;SDS011;66253;50.526;14.974;2023-04-06T04:15:13;8.80;;;3.60;;
77234;SDS011;66253;50.526;14.974;2023-04-06T04:17:39;19.10;;;5.80;;
77234;SDS011;66253;50.526;14.974;2023-04-06T04:20:05;11.80;;;4.90;;
77234;SDS011;66253;50.526;14.974;2023-04-06T04:22:31;11.80;;;3.70;;
77234;SDS011;66253;50.526;14.974;2023-04-06T04:24:57;8.80;;;3.30;;
77234;SDS011;66253;50.526;14.974;2023-04-06T04:27:22;11.50;;;5.60;;
77234;SDS011;66253;50.526;14.974;2023-04-06T04:29:48;8.80;;;3.60;;
77234;SDS011;66253;50.526;14.974;2023-04-06T04:32:14;8.70;;;3.60;;
77234;SDS011;66253;50.526;14.974;2023-04-06T04:34:41;8.80;;;4.00;;
77234;SDS011;66253;50.526;14.974;2023-04-06T04:37:07;9.30;;;4.10;;
77234;SDS011;66253;50.526;14.974;2023-04-06T04:39:32;9.90;;;4.80;;
77234;SDS011;66253;50.526;14.974;2023-04-06T04:41:58;9.70;;;3.60;;
77234;SDS011;66253;50.526;14.974;2023-04-06T04:44:24;9.10;;;3.70;;
77234;SDS011;66253;50.526;14.974;2023-04-06T04:46:50;11.20;;;4.00;;
77234;SDS011;66253;50.526;14.974;2023-04-06T04:49:16;9.80;;;4.20;;
77234;SDS011;66253;50.526;14.974;2023-04-06T04:51:41;8.90;;;4.90;;
77234;SDS011;66253;50.526;14.974;2023-04-06T04:54:07;12.70;;;5.20;;
77234;SDS011;66253;50.526;14.974;2023-04-06T04:56:33;11.20;;;4.40;;
77234;SDS011;66253;50.526;14.974;2023-04-06T04:58:58;15.50;;;4.70;;
77234;SDS011;66253;50.526;14.974;2023-04-06T05:01:24;11.00;;;4.30;;
77234;SDS011;66253;50.526;14.974;2023-04-06T05:03:50;11.80;;;4.10;;
77234;SDS011;66253;50.526;14.974;2023-04-06T05:06:16;13.20;;;5.20;;
77234;SDS011;66253;50.526;14.974;2023-04-06T05:08:42;54.50;;;18.60;;
77234;SDS011;66253;50.526;14.974;2023-04-06T05:11:08;13.40;;;6.60;;
77234;SDS011;66253;50.526;14.974;2023-04-06T05:13:34;10.50;;;4.50;;
77234;SDS011;66253;50.526;14.974;2023-04-06T05:16:00;9.10;;;3.90;;
77234;SDS011;66253;50.526;14.974;2023-04-06T05:18:26;10.50;;;4.40;;
77234;SDS011;66253;50.526;14.974;2023-04-06T05:20:52;9.00;;;3.90;;
77234;SDS011;66253;50.526;14.974;2023-04-06T05:23:17;11.20;;;5.10;;
77234;SDS011;66253;50.526;14.974;2023-04-06T05:25:43;9.10;;;4.50;;
77234;SDS011;66253;50.526;14.974;2023-04-06T05:28:09;8.70;;;3.70;;
77234;SDS011;66253;50.526;14.974;2023-04-06T05:30:35;8.60;;;4.00;;
77234;SDS011;66253;50.526;14.974;2023-04-06T05:33:01;11.10;;;3.90;;
77234;SDS011;66253;50.526;14.974;2023-04-06T05:35:27;11.50;;;4.70;;
77234;SDS011;66253;50.526;14.974;2023-04-06T05:37:52;10.60;;;4.40;;
77234;SDS011;66253;50.526;14.974;2023-04-06T05:40:18;10.40;;;5.60;;
77234;SDS011;66253;50.526;14.974;2023-04-06T05:42:44;9.90;;;5.00;;
77234;SDS011;66253;50.526;14.974;2023-04-06T05:45:10;11.70;;;5.50;;
77234;SDS011;66253;50.526;14.974;2023-04-06T05:47:42;11.10;;;5.50;;
77234;SDS011;66253;50.526;14.974;2023-04-06T05:50:09;9.90;;;5.00;;
77234;SDS011;66253;50.526;14.974;2023-04-06T05:52:35;14.80;;;6.30;;
77234;SDS011;66253;50.526;14.974;2023-04-06T05:55:01;13.70;;;8.10;;
77234;SDS011;66253;50.526;14.974;2023-04-06T05:57:28;14.40;;;10.40;;
77234;SDS011;66253;50.526;14.974;2023-04-06T05:59:54;13.30;;;9.10;;
77234;SDS011;66253;50.526;14.974;2023-04-06T06:02:20;17.30;;;7.30;;
77234;SDS011;66253;50.526;14.974;2023-04-06T06:04:46;15.20;;;8.20;;
77234;SDS011;66253;50.526;14.974;2023-04-06T06:07:12;11.40;;;7.60;;
77234;SDS011;66253;50.526;14.974;2023-04-06T06:09:37;10.50;;;6.60;;
77234;SDS011;66253;50.526;14.974;2023-04-06T06:12:03;10.60;;;5.90;;
77234;SDS011;66253;50.526;14.974;2023-04-06T06:14:29;11.40;;;6.80;;
77234;SDS011;66253;50.526;14.974;2023-04-06T06:16:54;10.50;;;4.40;;
77234;SDS011;66253;50.526;14.974;2023-04-06T06:19:20;9.10;;;4.90;;
77234;SDS011;66253;50.526;14.974;2023-04-06T06:21:45;9.20;;;5.10;;
77234;SDS011;66253;50.526;14.974;2023-04-06T06:24:11;8.80;;;4.10;;
77234;SDS011;66253;50.526;14.974;2023-04-06T06:26:37;11.30;;;7.10;;
77234;SDS011;66253;50.526;14.974;2023-04-06T06:29:04;9.70;;;6.20;;
77234;SDS011;66253;50.526;14.974;2023-04-06T06:31:31;9.10;;;5.30;;
77234;SDS011;66253;50.526;14.974;2023-04-06T06:33:59;8.40;;;4.40;;
77234;SDS011;66253;50.526;14.974;2023-04-06T06:36:25;9.20;;;5.30;;
77234;SDS011;66253;50.526;14.974;2023-04-06T06:38:53;8.80;;;5.20;;
77234;SDS011;66253;50.526;14.974;2023-04-06T06:41:21;8.60;;;4.60;;
77234;SDS011;66253;50.526;14.974;2023-04-06T06:43:46;9.70;;;5.30;;
77234;SDS011;66253;50.526;14.974;2023-04-06T06:46:12;10.30;;;5.00;;
77234;SDS011;66253;50.526;14.974;2023-04-06T06:48:37;9.10;;;6.20;;
77234;SDS011;66253;50.526;14.974;2023-04-06T06:51:03;11.40;;;6.40;;
77234;SDS011;66253;50.526;14.974;2023-04-06T06:53:28;13.70;;;7.50;;
77234;SDS011;66253;50.526;14.974;2023-04-06T06:55:54;9.20;;;5.70;;
77234;SDS011;66253;50.526;14.974;2023-04-06T06:58:20;8.10;;;4.80;;
77234;SDS011;66253;50.526;14.974;2023-04-06T07:00:45;8.00;;;4.30;;
77234;SDS011;66253;50.526;14.974;2023-04-06T07:03:12;7.30;;;4.80;;
77234;SDS011;66253;50.526;14.974;2023-04-06T07:05:37;7.10;;;4.50;;
77234;SDS011;66253;50.526;14.974;2023-04-06T07:08:03;6.60;;;3.60;;
77234;SDS011;66253;50.526;14.974;2023-04-06T07:10:29;8.80;;;4.40;;
77234;SDS011;66253;50.526;14.974;2023-04-06T07:12:54;7.60;;;4.70;;
77234;SDS011;66253;50.526;14.974;2023-04-06T07:15:20;10.20;;;5.40;;
77234;SDS011;66253;50.526;14.974;2023-04-06T07:17:46;8.40;;;4.00;;
77234;SDS011;66253;50.526;14.974;2023-04-06T07:20:12;8.70;;;4.20;;
77234;SDS011;66253;50.526;14.974;2023-04-06T07:22:38;8.00;;;3.80;;
77234;SDS011;66253;50.526;14.974;2023-04-06T07:25:04;8.20;;;4.00;;
77234;SDS011;66253;50.526;14.974;2023-04-06T07:27:30;8.40;;;4.40;;
77234;SDS011;66253;50.526;14.974;2023-04-06T07:33:34;7.90;;;3.60;;
77234;SDS011;66253;50.526;14.974;2023-04-06T07:36:00;7.50;;;3.70;;
77234;SDS011;66253;50.526;14.974;2023-04-06T07:38:26;6.50;;;3.40;;
77234;SDS011;66253;50.526;14.974;2023-04-06T07:40:54;7.70;;;3.60;;
77234;SDS011;66253;50.526;14.974;2023-04-06T07:43:23;5.70;;;2.70;;
77234;SDS011;66253;50.526;14.974;2023-04-06T07:45:49;7.10;;;4.20;;
77234;SDS011;66253;50.526;14.974;2023-04-06T07:48:48;5.90;;;3.20;;
77234;SDS011;66253;50.526;14.974;2023-04-06T07:51:25;5.70;;;3.30;;
77234;SDS011;66253;50.526;14.974;2023-04-06T07:53:53;7.70;;;3.40;;
77234;SDS011;66253;50.526;14.974;2023-04-06T07:56:35;5.80;;;3.60;;
77234;SDS011;66253;50.526;14.974;2023-04-06T07:59:01;6.90;;;4.50;;
77234;SDS011;66253;50.526;14.974;2023-04-06T08:01:28;7.60;;;2.90;;
77234;SDS011;66253;50.526;14.974;2023-04-06T08:03:58;8.10;;;3.30;;
77234;SDS011;66253;50.526;14.974;2023-04-06T08:06:26;7.70;;;2.80;;
77234;SDS011;66253;50.526;14.974;2023-04-06T08:08:59;6.20;;;2.90;;
77234;SDS011;66253;50.526;14.974;2023-04-06T08:11:27;7.90;;;3.20;;
77234;SDS011;66253;50.526;14.974;2023-04-06T08:14:05;6.50;;;3.60;;
77234;SDS011;66253;50.526;14.974;2023-04-06T08:16:37;6.50;;;3.00;;
77234;SDS011;66253;50.526;14.974;2023-04-06T08:19:03;6.40;;;4.40;;
77234;SDS011;66253;50.526;14.974;2023-04-06T08:21:29;5.50;;;3.70;;
77234;SDS011;66253;50.526;14.974;2023-04-06T08:24:00;6.40;;;2.90;;
77234;SDS011;66253;50.526;14.974;2023-04-06T08:26:33;6.20;;;2.90;;
77234;SDS011;66253;50.526;14.974;2023-04-06T08:29:00;6.10;;;2.80;;
77234;SDS011;66253;50.526;14.974;2023-04-06T08:31:29;7.60;;;3.50;;
77234;SDS011;66253;50.526;14.974;2023-04-06T08:33:55;6.60;;;2.60;;
77234;SDS011;66253;50.526;14.974;2023-04-06T08:36:21;6.00;;;3.10;;
77234;SDS011;66253;50.526;14.974;2023-04-06T08:38:48;5.00;;;2.20;;
77234;SDS011;66253;50.526;14.974;2023-04-06T08:41:15;6.10;;;2.20;;
77234;SDS011;66253;50.526;14.974;2023-04-06T08:46:14;6.50;;;1.80;;
77234;SDS011;66253;50.526;14.974;2023-04-06T08:48:41;5.40;;;1.90;;
77234;SDS011;66253;50.526;14.974;2023-04-06T08:51:08;4.20;;;1.70;;
77234;SDS011;66253;50.526;14.974;2023-04-06T08:53:35;5.40;;;2.50;;
77234;SDS011;66253;50.526;14.974;2023-04-06T08:56:02;4.00;;;1.70;;
77234;SDS011;66253;50.526;14.974;2023-04-06T08:58:37;4.90;;;3.10;;
77234;SDS011;66253;50.526;14.974;2023-04-06T09:01:09;3.10;;;1.30;;
77234;SDS011;66253;50.526;14.974;2023-04-06T09:06:19;3.80;;;1.40;;
77234;SDS011;66253;50.526;14.974;2023-04-06T09:08:46;3.80;;;1.10;;
77234;SDS011;66253;50.526;14.974;2023-04-06T09:11:11;3.50;;;1.30;;
77234;SDS011;66253;50.526;14.974;2023-04-06T09:13:52;3.30;;;1.40;;
77234;SDS011;66253;50.526;14.974;2023-04-06T09:16:20;5.70;;;2.90;;
77234;SDS011;66253;50.526;14.974;2023-04-06T09:18:46;4.00;;;1.60;;
77234;SDS011;66253;50.526;14.974;2023-04-06T09:23:42;4.10;;;1.60;;
77234;SDS011;66253;50.526;14.974;2023-04-06T09:28:51;3.40;;;1.10;;
77234;SDS011;66253;50.526;14.974;2023-04-06T09:31:25;5.40;;;2.00;;
77234;SDS011;66253;50.526;14.974;2023-04-06T09:33:55;6.50;;;2.30;;
77234;SDS011;66253;50.526;14.974;2023-04-06T09:36:30;4.70;;;1.80;;
77234;SDS011;66253;50.526;14.974;2023-04-06T09:38:58;5.20;;;2.10;;
77234;SDS011;66253;50.526;14.974;2023-04-06T09:41:28;2.80;;;0.70;;
77234;SDS011;66253;50.526;14.974;2023-04-06T09:44:08;5.00;;;2.10;;
77234;SDS011;66253;50.526;14.974;2023-04-06T09:46:36;4.10;;;1.90;;
77234;SDS011;66253;50.526;14.974;2023-04-06T09:51:46;8.80;;;4.00;;
77234;SDS011;66253;50.526;14.974;2023-04-06T09:54:21;3.50;;;1.70;;
77234;SDS011;66253;50.526;14.974;2023-04-06T09:59:37;3.80;;;1.20;;
77234;SDS011;66253;50.526;14.974;2023-04-06T10:08:28;5.20;;;1.70;;
77234;SDS011;66253;50.526;14.974;2023-04-06T10:11:00;4.70;;;1.90;;
77234;SDS011;66253;50.526;14.974;2023-04-06T10:13:30;2.70;;;1.10;;
77234;SDS011;66253;50.526;14.974;2023-04-06T10:16:15;3.10;;;1.00;;
77234;SDS011;66253;50.526;14.974;2023-04-06T10:19:02;4.90;;;2.20;;
77234;SDS011;66253;50.526;14.974;2023-04-06T10:21:43;4.30;;;2.30;;
77234;SDS011;66253;50.526;14.974;2023-04-06T10:24:29;3.00;;;1.30;;
77234;SDS011;66253;50.526;14.974;2023-04-06T10:27:01;3.20;;;1.60;;
77234;SDS011;66253;50.526;14.974;2023-04-06T10:29:28;3.10;;;1.00;;
77234;SDS011;66253;50.526;14.974;2023-04-06T10:32:05;2.70;;;0.90;;
77234;SDS011;66253;50.526;14.974;2023-04-06T10:34:35;3.50;;;1.60;;
77234;SDS011;66253;50.526;14.974;2023-04-06T10:37:10;4.10;;;1.70;;
77234;SDS011;66253;50.526;14.974;2023-04-06T10:39:45;3.60;;;1.50;;
77234;SDS011;66253;50.526;14.974;2023-04-06T10:42:41;4.30;;;1.10;;
77234;SDS011;66253;50.526;14.974;2023-04-06T10:45:06;3.60;;;2.00;;
77234;SDS011;66253;50.526;14.974;2023-04-06T10:47:42;3.80;;;0.90;;
77234;SDS011;66253;50.526;14.974;2023-04-06T10:50:11;3.90;;;1.50;;
77234;SDS011;66253;50.526;14.974;2023-04-06T10:52:40;4.10;;;1.30;;
77234;SDS011;66253;50.526;14.974;2023-04-06T10:55:08;3.00;;;0.90;;
77234;SDS011;66253;50.526;14.974;2023-04-06T10:57:35;4.60;;;1.70;;
77234;SDS011;66253;50.526;14.974;2023-04-06T11:00:07;2.90;;;0.90;;
77234;SDS011;66253;50.526;14.974;2023-04-06T11:02:34;2.50;;;0.80;;
77234;SDS011;66253;50.526;14.974;2023-04-06T11:05:01;3.20;;;1.20;;
77234;SDS011;66253;50.526;14.974;2023-04-06T11:07:27;3.30;;;1.40;;
77234;SDS011;66253;50.526;14.974;2023-04-06T11:10:29;3.20;;;0.90;;
77234;SDS011;66253;50.526;14.974;2023-04-06T11:12:57;2.50;;;1.00;;
77234;SDS011;66253;50.526;14.974;2023-04-06T11:15:33;4.20;;;2.10;;
77234;SDS011;66253;50.526;14.974;2023-04-06T11:18:24;2.70;;;0.70;;
77234;SDS011;66253;50.526;14.974;2023-04-06T11:20:55;11.20;;;5.10;;
77234;SDS011;66253;50.526;14.974;2023-04-06T11:23:25;5.70;;;3.10;;
77234;SDS011;66253;50.526;14.974;2023-04-06T11:26:13;6.20;;;2.90;;
77234;SDS011;66253;50.526;14.974;2023-04-06T11:28:45;16.70;;;6.90;;
77234;SDS011;66253;50.526;14.974;2023-04-06T11:31:11;6.70;;;2.30;;
77234;SDS011;66253;50.526;14.974;2023-04-06T11:33:37;7.70;;;3.20;;
77234;SDS011;66253;50.526;14.974;2023-04-06T11:36:04;6.10;;;3.30;;
77234;SDS011;66253;50.526;14.974;2023-04-06T11:38:38;3.80;;;1.00;;
77234;SDS011;66253;50.526;14.974;2023-04-06T11:41:16;3.70;;;1.10;;
77234;SDS011;66253;50.526;14.974;2023-04-06T11:43:48;3.10;;;1.00;;
77234;SDS011;66253;50.526;14.974;2023-04-06T11:46:27;20.60;;;9.00;;
77234;SDS011;66253;50.526;14.974;2023-04-06T11:49:12;5.90;;;2.20;;
77234;SDS011;66253;50.526;14.974;2023-04-06T11:51:41;4.10;;;1.00;;
77234;SDS011;66253;50.526;14.974;2023-04-06T11:54:10;3.20;;;1.40;;
77234;SDS011;66253;50.526;14.974;2023-04-06T11:56:36;3.10;;;1.30;;
77234;SDS011;66253;50.526;14.974;2023-04-06T11:59:03;4.90;;;2.10;;
77234;SDS011;66253;50.526;14.974;2023-04-06T12:01:29;3.70;;;2.60;;
77234;SDS011;66253;50.526;14.974;2023-04-06T12:03:55;6.80;;;2.10;;
77234;SDS011;66253;50.526;14.974;2023-04-06T12:06:22;7.60;;;2.40;;
77234;SDS011;66253;50.526;14.974;2023-04-06T12:08:51;4.50;;;1.90;;
77234;SDS011;66253;50.526;14.974;2023-04-06T12:11:17;4.30;;;1.80;;
77234;SDS011;66253;50.526;14.974;2023-04-06T12:13:54;4.50;;;2.30;;
77234;SDS011;66253;50.526;14.974;2023-04-06T12:16:20;8.70;;;4.10;;
77234;SDS011;66253;50.526;14.974;2023-04-06T12:18:55;21.50;;;10.70;;
77234;SDS011;66253;50.526;14.974;2023-04-06T12:21:24;4.60;;;1.60;;
77234;SDS011;66253;50.526;14.974;2023-04-06T12:23:58;3.00;;;0.80;;
77234;SDS011;66253;50.526;14.974;2023-04-06T12:26:25;3.60;;;0.90;;
77234;SDS011;66253;50.526;14.974;2023-04-06T12:28:51;7.00;;;2.60;;
77234;SDS011;66253;50.526;14.974;2023-04-06T12:31:18;6.00;;;1.90;;
77234;SDS011;66253;50.526;14.974;2023-04-06T12:33:46;5.10;;;1.50;;
77234;SDS011;66253;50.526;14.974;2023-04-06T12:36:14;5.00;;;2.40;;
77234;SDS011;66253;50.526;14.974;2023-04-06T12:38:46;3.80;;;1.30;;
77234;SDS011;66253;50.526;14.974;2023-04-06T12:41:19;3.30;;;1.70;;
77234;SDS011;66253;50.526;14.974;2023-04-06T12:43:50;4.00;;;1.80;;
77234;SDS011;66253;50.526;14.974;2023-04-06T12:46:15;4.70;;;1.20;;
77234;SDS011;66253;50.526;14.974;2023-04-06T12:48:42;4.10;;;1.80;;
77234;SDS011;66253;50.526;14.974;2023-04-06T12:51:16;4.80;;;1.50;;
77234;SDS011;66253;50.526;14.974;2023-04-06T12:53:51;5.00;;;1.60;;
77234;SDS011;66253;50.526;14.974;2023-04-06T12:56:17;6.20;;;2.10;;
77234;SDS011;66253;50.526;14.974;2023-04-06T12:58:46;4.90;;;2.10;;
77234;SDS011;66253;50.526;14.974;2023-04-06T13:01:22;4.20;;;1.20;;
77234;SDS011;66253;50.526;14.974;2023-04-06T13:03:55;5.40;;;2.30;;
77234;SDS011;66253;50.526;14.974;2023-04-06T13:06:24;5.80;;;2.10;;
77234;SDS011;66253;50.526;14.974;2023-04-06T13:09:02;4.60;;;2.40;;
77234;SDS011;66253;50.526;14.974;2023-04-06T13:11:29;7.00;;;2.90;;
77234;SDS011;66253;50.526;14.974;2023-04-06T13:13:55;5.60;;;2.40;;
77234;SDS011;66253;50.526;14.974;2023-04-06T13:16:20;4.60;;;2.30;;
77234;SDS011;66253;50.526;14.974;2023-04-06T13:18:49;5.80;;;1.90;;
77234;SDS011;66253;50.526;14.974;2023-04-06T13:21:21;7.40;;;2.50;;
77234;SDS011;66253;50.526;14.974;2023-04-06T13:23:54;7.70;;;3.30;;
77234;SDS011;66253;50.526;14.974;2023-04-06T13:26:23;7.90;;;3.10;;
77234;SDS011;66253;50.526;14.974;2023-04-06T13:28:49;10.00;;;3.90;;
77234;SDS011;66253;50.526;14.974;2023-04-06T13:34:09;5.20;;;1.40;;
77234;SDS011;66253;50.526;14.974;2023-04-06T13:36:35;3.20;;;1.30;;
77234;SDS011;66253;50.526;14.974;2023-04-06T13:39:01;3.70;;;1.70;;
77234;SDS011;66253;50.526;14.974;2023-04-06T13:41:27;4.30;;;1.50;;
77234;SDS011;66253;50.526;14.974;2023-04-06T13:43:52;3.70;;;1.50;;
77234;SDS011;66253;50.526;14.974;2023-04-06T13:46:18;5.10;;;2.00;;
77234;SDS011;66253;50.526;14.974;2023-04-06T13:48:47;4.50;;;2.00;;
77234;SDS011;66253;50.526;14.974;2023-04-06T13:51:13;3.50;;;1.60;;
77234;SDS011;66253;50.526;14.974;2023-04-06T13:53:40;5.20;;;1.40;;
77234;SDS011;66253;50.526;14.974;2023-04-06T13:56:06;4.00;;;1.60;;
77234;SDS011;66253;50.526;14.974;2023-04-06T13:58:41;4.50;;;1.60;;
77234;SDS011;66253;50.526;14.974;2023-04-06T14:01:07;3.70;;;1.00;;
77234;SDS011;66253;50.526;14.974;2023-04-06T14:03:37;5.00;;;1.60;;
77234;SDS011;66253;50.526;14.974;2023-04-06T14:06:13;3.70;;;1.50;;
77234;SDS011;66253;50.526;14.974;2023-04-06T14:08:39;4.10;;;1.40;;
77234;SDS011;66253;50.526;14.974;2023-04-06T14:11:06;4.90;;;1.70;;
77234;SDS011;66253;50.526;14.974;2023-04-06T14:13:37;5.00;;;1.40;;
77234;SDS011;66253;50.526;14.974;2023-04-06T14:16:02;4.50;;;1.80;;
77234;SDS011;66253;50.526;14.974;2023-04-06T14:18:36;3.10;;;1.30;;
77234;SDS011;66253;50.526;14.974;2023-04-06T14:21:23;3.90;;;1.40;;
77234;SDS011;66253;50.526;14.974;2023-04-06T14:23:48;5.70;;;2.00;;
77234;SDS011;66253;50.526;14.974;2023-04-06T14:26:14;5.00;;;1.70;;
77234;SDS011;66253;50.526;14.974;2023-04-06T14:28:40;4.50;;;1.80;;
77234;SDS011;66253;50.526;14.974;2023-04-06T14:31:13;4.70;;;2.10;;
77234;SDS011;66253;50.526;14.974;2023-04-06T14:33:43;4.30;;;2.30;;
77234;SDS011;66253;50.526;14.974;2023-04-06T14:36:09;5.80;;;2.50;;
77234;SDS011;66253;50.526;14.974;2023-04-06T14:38:36;5.60;;;2.20;;
77234;SDS011;66253;50.526;14.974;2023-04-06T14:41:01;5.20;;;2.20;;
77234;SDS011;66253;50.526;14.974;2023-04-06T14:43:36;6.10;;;1.60;;
77234;SDS011;66253;50.526;14.974;2023-04-06T14:46:02;3.90;;;1.60;;
77234;SDS011;66253;50.526;14.974;2023-04-06T14:48:34;4.10;;;1.50;;
77234;SDS011;66253;50.526;14.974;2023-04-06T14:51:00;3.20;;;1.10;;
77234;SDS011;66253;50.526;14.974;2023-04-06T14:53:26;4.80;;;1.90;;
77234;SDS011;66253;50.526;14.974;2023-04-06T14:55:53;6.10;;;3.00;;
77234;SDS011;66253;50.526;14.974;2023-04-06T14:58:20;4.00;;;1.50;;
77234;SDS011;66253;50.526;14.974;2023-04-06T15:00:48;4.30;;;1.80;;
77234;SDS011;66253;50.526;14.974;2023-04-06T15:03:14;5.60;;;2.30;;
77234;SDS011;66253;50.526;14.974;2023-04-06T15:05:41;4.90;;;1.70;;